createdAt,value
2022-07-26T00:02:55.147Z,3.40
2022-07-26T00:08:17.394Z,3.40
2022-07-26T00:13:37.852Z,3.00
2022-07-26T00:18:47.790Z,3.60
2022-07-26T00:24:01.209Z,3.70
2022-07-26T00:29:12.270Z,3.70
2022-07-26T00:34:27.874Z,3.00
2022-07-26T00:39:36.049Z,3.20
2022-07-26T00:44:45.826Z,3.20
2022-07-26T00:50:04.960Z,3.40
2022-07-26T00:55:23.498Z,3.90
2022-07-26T01:00:31.701Z,3.00
2022-07-26T01:05:44.080Z,3.50
2022-07-26T01:11:05.061Z,3.50
2022-07-26T01:16:21.696Z,3.30
2022-07-26T01:21:34.496Z,3.70
2022-07-26T01:26:48.473Z,3.50
2022-07-26T01:32:05.197Z,3.90
2022-07-26T01:37:21.315Z,3.60
2022-07-26T01:42:33.273Z,3.90
2022-07-26T01:47:45.409Z,3.70
2022-07-26T01:53:06.223Z,3.90
2022-07-26T01:58:29.548Z,3.80
2022-07-26T02:03:48.921Z,4.20
2022-07-26T02:08:57.020Z,4.10
2022-07-26T02:14:06.639Z,3.90
2022-07-26T02:19:19.632Z,3.50
2022-07-26T02:24:31.675Z,3.50
2022-07-26T02:29:44.759Z,3.90
2022-07-26T02:34:52.128Z,4.10
2022-07-26T02:45:05.719Z,3.80
2022-07-26T02:50:17.264Z,2.90
2022-07-26T02:55:26.789Z,3.70
2022-07-26T03:00:46.771Z,3.80
2022-07-26T03:05:54.405Z,3.50
2022-07-26T03:11:03.162Z,4.10
2022-07-26T03:16:12.264Z,3.30
2022-07-26T03:21:32.054Z,3.60
2022-07-26T03:26:42.141Z,3.60
2022-07-26T03:31:50.402Z,4.10
2022-07-26T03:36:58.083Z,3.80
2022-07-26T03:42:07.945Z,4.40
2022-07-26T03:47:15.865Z,4.00
2022-07-26T03:52:23.367Z,4.60
2022-07-26T03:57:38.580Z,4.30
2022-07-26T04:02:49.359Z,5.80
2022-07-26T04:07:57.310Z,6.50
2022-07-26T04:13:07.673Z,5.40
2022-07-26T04:18:18.002Z,5.20
2022-07-26T04:23:25.438Z,5.30
2022-07-26T04:28:33.743Z,5.50
2022-07-26T04:33:52.128Z,5.20
2022-07-26T04:39:01.723Z,5.80
2022-07-26T04:49:18.109Z,6.30
2022-07-26T04:54:34.951Z,6.20
2022-07-26T04:59:42.536Z,6.00
2022-07-26T05:05:00.330Z,6.70
2022-07-26T05:10:12.091Z,6.70
2022-07-26T05:15:20.950Z,6.40
2022-07-26T05:20:29.110Z,7.60
2022-07-26T05:25:52.548Z,6.00
2022-07-26T05:31:04.850Z,7.20
2022-07-26T05:36:33.226Z,7.30
2022-07-26T05:42:01.332Z,7.30
2022-07-26T05:47:28.288Z,7.70
2022-07-26T05:52:36.977Z,7.60
2022-07-26T05:57:49.819Z,7.30
2022-07-26T06:03:24.616Z,7.30
2022-07-26T06:08:55.896Z,8.50
2022-07-26T06:14:04.040Z,7.20
2022-07-26T06:19:17.165Z,6.70
2022-07-26T06:24:25.065Z,6.80
2022-07-26T06:29:35.699Z,6.70
2022-07-26T06:34:43.388Z,5.80
2022-07-26T06:39:53.828Z,4.50
2022-07-26T06:45:02.700Z,5.20
2022-07-26T06:50:13.716Z,4.30
2022-07-26T06:55:21.493Z,3.50
2022-07-26T07:00:29.226Z,3.60
2022-07-26T07:05:50.394Z,3.70
2022-07-26T07:11:07.893Z,3.30
2022-07-26T07:16:20.782Z,4.20
2022-07-26T07:21:28.887Z,3.30
2022-07-26T07:26:40.581Z,2.80
2022-07-26T07:32:09.015Z,2.70
2022-07-26T07:37:52.755Z,3.10
2022-07-26T07:43:14.741Z,3.20
2022-07-26T07:48:47.237Z,2.90
2022-07-26T07:54:16.185Z,2.70
2022-07-26T07:59:23.957Z,2.70
2022-07-26T08:04:31.603Z,2.80
2022-07-26T08:09:48.614Z,2.80
2022-07-26T08:14:56.222Z,3.50
2022-07-26T08:20:03.804Z,2.80
2022-07-26T08:25:13.488Z,3.00
2022-07-26T08:30:24.451Z,3.00
2022-07-26T08:35:32.161Z,2.80
2022-07-26T08:40:39.997Z,2.70
2022-07-26T08:46:08.034Z,3.40
2022-07-26T08:51:26.638Z,3.30
2022-07-26T08:56:35.195Z,3.10
2022-07-26T09:01:57.116Z,3.10
2022-07-26T09:07:07.853Z,3.50
2022-07-26T09:12:23.768Z,2.70
2022-07-26T09:17:44.224Z,2.80
2022-07-26T09:23:06.304Z,3.60
2022-07-26T09:28:27.062Z,3.60
2022-07-26T09:33:55.693Z,3.40
2022-07-26T09:39:07.544Z,3.00
2022-07-26T09:44:28.117Z,2.60
2022-07-26T09:49:47.148Z,3.20
2022-07-26T09:55:05.578Z,3.20
2022-07-26T10:00:25.982Z,3.30
2022-07-26T10:05:42.305Z,3.30
2022-07-26T10:10:56.072Z,3.40
2022-07-26T10:16:06.136Z,3.20
2022-07-26T10:21:30.194Z,3.50
2022-07-26T10:27:51.023Z,3.10
2022-07-26T10:33:08.207Z,3.20
2022-07-26T10:38:29.738Z,3.70
2022-07-26T10:43:41.233Z,2.50
2022-07-26T10:49:05.422Z,2.70
2022-07-26T10:54:15.419Z,3.10
2022-07-26T10:59:57.732Z,2.60
2022-07-26T11:05:14.465Z,2.40
2022-07-26T11:10:44.784Z,2.70
2022-07-26T11:16:03.508Z,2.00
2022-07-26T11:21:25.301Z,1.90
2022-07-26T11:26:35.290Z,2.50
2022-07-26T11:31:51.440Z,2.40
2022-07-26T11:37:10.085Z,2.30
2022-07-26T11:42:22.028Z,2.20
2022-07-26T11:47:29.635Z,2.10
2022-07-26T11:52:48.427Z,2.00
2022-07-26T11:58:05.272Z,2.80
2022-07-26T12:03:15.862Z,2.80
2022-07-26T12:08:27.105Z,2.30
2022-07-26T12:13:55.130Z,2.60
2022-07-26T12:19:06.139Z,2.30
2022-07-26T12:24:38.389Z,2.40
2022-07-26T12:29:51.306Z,2.50
2022-07-26T12:35:01.109Z,3.00
2022-07-26T12:40:12.604Z,2.20
2022-07-26T12:45:31.391Z,3.10
2022-07-26T12:50:45.118Z,3.20
2022-07-26T12:56:00.199Z,4.40
2022-07-26T13:01:08.776Z,2.90
2022-07-26T13:06:16.409Z,2.50
2022-07-26T13:11:29.808Z,2.00
2022-07-26T13:16:54.115Z,2.20
2022-07-26T13:22:05.954Z,2.30
2022-07-26T13:27:14.509Z,2.20
2022-07-26T13:32:25.043Z,2.40
2022-07-26T13:37:35.450Z,2.20
2022-07-26T13:42:57.620Z,2.70
2022-07-26T13:48:07.139Z,2.40
2022-07-26T13:53:20.171Z,2.60
2022-07-26T13:58:28.237Z,2.50
2022-07-26T14:03:44.926Z,2.00
2022-07-26T14:09:12.520Z,2.20
2022-07-26T14:14:23.710Z,2.40
2022-07-26T14:19:39.230Z,2.10
2022-07-26T14:24:49.814Z,2.00
2022-07-26T14:29:57.458Z,1.70
2022-07-26T14:35:06.539Z,2.00
2022-07-26T14:40:16.684Z,1.80
2022-07-26T14:45:24.808Z,1.70
2022-07-26T14:50:42.551Z,1.90
2022-07-26T14:55:59.944Z,2.20
2022-07-26T15:01:09.867Z,2.30
2022-07-26T15:06:18.050Z,2.00
2022-07-26T15:11:26.240Z,2.20
2022-07-26T15:16:37.171Z,2.40
2022-07-26T15:21:47.461Z,2.00
2022-07-26T15:26:55.798Z,1.50
2022-07-26T15:32:03.478Z,2.20
2022-07-26T15:37:14.034Z,2.20
2022-07-26T15:42:23.348Z,1.80
2022-07-26T15:48:11.001Z,1.90
2022-07-26T15:58:27.507Z,2.10
2022-07-26T16:03:37.268Z,1.70
2022-07-26T16:09:13.442Z,1.60
2022-07-26T16:14:13.581Z,1.60
2022-07-26T16:19:22.936Z,1.20
2022-07-26T16:24:34.044Z,1.90
2022-07-26T16:29:41.812Z,2.20
2022-07-26T16:34:49.464Z,2.00
2022-07-26T16:39:57.341Z,1.50
2022-07-26T16:45:05.934Z,1.60
2022-07-26T16:50:27.039Z,1.40
2022-07-26T16:55:35.862Z,1.10
2022-07-26T17:00:43.850Z,1.90
2022-07-26T17:05:51.342Z,1.40
2022-07-26T17:10:59.390Z,1.30
2022-07-26T17:16:07.302Z,0.90
2022-07-26T17:21:15.078Z,1.20
2022-07-26T17:26:23.264Z,1.10
2022-07-26T17:31:30.966Z,1.30
2022-07-26T17:36:38.777Z,1.30
2022-07-26T17:41:49.791Z,1.30
2022-07-26T17:46:58.891Z,1.20
2022-07-26T17:52:06.980Z,1.40
2022-07-26T17:57:19.602Z,1.20
2022-07-26T18:02:27.333Z,1.10
2022-07-26T18:07:35.149Z,1.40
2022-07-26T18:12:47.680Z,1.20
2022-07-26T18:17:57.600Z,1.70
2022-07-26T18:23:05.054Z,1.10
2022-07-26T18:28:32.438Z,1.80
2022-07-26T18:33:42.456Z,1.10
2022-07-26T18:38:52.773Z,1.10
2022-07-26T18:44:13.380Z,2.00
2022-07-26T18:49:23.410Z,2.50
2022-07-26T18:54:37.065Z,2.40
2022-07-26T18:59:48.192Z,1.40
2022-07-26T19:05:08.304Z,1.20
2022-07-26T19:10:22.878Z,1.60
2022-07-26T19:15:32.620Z,1.50
2022-07-26T19:20:49.712Z,2.00
2022-07-26T19:25:57.049Z,1.90
2022-07-26T19:31:15.558Z,1.70
2022-07-26T19:36:33.518Z,1.50
2022-07-26T19:41:41.313Z,1.60
2022-07-26T19:46:52.001Z,1.60
2022-07-26T19:52:11.367Z,2.00
2022-07-26T19:57:20.290Z,1.70
2022-07-26T20:02:37.606Z,1.60
2022-07-26T20:12:51.190Z,1.20
2022-07-26T20:18:04.527Z,1.30
2022-07-26T20:23:12.112Z,0.90
2022-07-26T20:28:27.411Z,1.10
2022-07-26T20:33:39.351Z,1.20
2022-07-26T20:38:51.747Z,1.40
2022-07-26T20:43:59.427Z,0.90
2022-07-26T20:49:07.666Z,0.80
2022-07-26T20:54:18.659Z,1.10
2022-07-26T20:59:26.619Z,1.40
2022-07-26T21:04:34.042Z,1.30
2022-07-26T21:09:41.863Z,1.30
2022-07-26T21:14:52.438Z,1.30
2022-07-26T21:20:01.639Z,1.00
2022-07-26T21:25:21.871Z,1.20
2022-07-26T21:30:50.091Z,1.10
2022-07-26T21:36:04.769Z,1.10
2022-07-26T21:41:13.697Z,1.20
2022-07-26T21:46:34.990Z,1.00
2022-07-26T21:51:48.670Z,1.50
2022-07-26T21:57:02.569Z,1.10
2022-07-26T22:02:19.967Z,1.30
2022-07-26T22:07:30.079Z,2.20
2022-07-26T22:12:40.512Z,3.60
2022-07-26T22:18:02.935Z,1.30
2022-07-26T22:23:25.701Z,1.00
2022-07-26T22:29:02.435Z,1.10
2022-07-26T22:34:24.493Z,1.00
2022-07-26T22:45:20.318Z,2.00
2022-07-26T22:50:52.553Z,2.80
2022-07-26T22:56:11.947Z,1.30
2022-07-26T23:02:41.580Z,2.00
2022-07-26T23:08:47.452Z,1.70
2022-07-26T23:19:33.618Z,1.60
2022-07-26T23:24:53.038Z,1.30
2022-07-26T23:30:07.566Z,1.00
2022-07-26T23:35:15.911Z,1.00
2022-07-26T23:40:34.913Z,1.40
2022-07-26T23:46:12.208Z,1.00
2022-07-26T23:51:33.143Z,0.90
2022-07-26T23:56:46.005Z,1.30
